Friday, October 19, 2018, 6:54 AM GMT
Back to Local

CWEF, Saint Paul Island Meteorological Aeronautical Presentation System

Location: , , Canada Lat: 47.233
Local Time: 6:54 AM GMT ( 6:54 GMT) Lon: -60.133
Time Zone: GMT Elev: 85 ft

Show me the last for .
Show Coded

Time T Td Feel RH Dir Speed Gust Alt SLP Vis Weather Sky Remarks
2018-10-19 06:00 39 31 - 73 - - - - 29.57 0 None
2018-10-19 05:00 39 32 - 75 - - - - 29.55 0 None
2018-10-19 04:00 38 31 - 76 - - - - 29.53 0 None
2018-10-19 03:00 40 33 - 75 - - - - 29.49 0 None
2018-10-19 02:00 39 35 - 84 - - - - 29.47 0 None
2018-10-19 01:00 40 35 - 79 - - - - 29.44 0 None
2018-10-19 00:00 41 37 - 88 - - - - 29.41 0 None
2018-10-18 23:00 42 37 - 82 - - - - 29.39 0 None
2018-10-18 22:00 42 37 - 82 - - - - 29.38 0 None
2018-10-18 21:00 40 35 - 81 - - - - 29.36 0 None
2018-10-18 20:00 43 36 - 77 - - - - 29.35 0 None
2018-10-18 19:00 41 36 29 83 35 - - 29.35 0 None
2018-10-18 18:00 41 37 30 83 33 - - 29.35 0 None
2018-10-18 17:00 40 38 - 91 - Calm - - 29.35 0 None
2018-10-18 16:00 40 37 - 89 - Calm - - 29.36 0 None
2018-10-18 15:00 41 37 - 83 - Calm - - 29.35 0 None
2018-10-18 14:00 41 36 - 82 290° 1 - - 29.35 0 None
2018-10-18 13:00 45 38 - 77 - Calm - - 29.35 0 None
2018-10-18 12:00 44 39 - 81 - Calm - - 29.38 0 None
2018-10-18 11:00 43 38 - 82 - Calm - - 29.38 0 None
2018-10-18 10:00 46 38 - 73 270° 1 - - 29.37 0 None
2018-10-18 09:00 45 41 - 87 - Calm - - 29.39 0 Peak wind: 21 mph (19 kts) from 210° at 44 min
2018-10-18 08:00 45 41 - 87 - Calm - - 29.41 0 None
2018-10-18 07:00 44 41 - 89 - Calm - - 29.44 0 None

Support USWX by starting your Amazon purchase here.